createdAt,value
2022-10-08T00:02:07.371Z,12.36
2022-10-08T00:05:10.230Z,12.37
2022-10-08T00:08:12.689Z,12.32
2022-10-08T00:11:18.436Z,12.31
2022-10-08T00:14:23.504Z,12.27
2022-10-08T00:17:26.756Z,12.24
2022-10-08T00:20:29.272Z,12.21
2022-10-08T00:23:33.978Z,12.22
2022-10-08T00:26:42.625Z,12.20
2022-10-08T00:29:46.980Z,12.21
2022-10-08T00:32:49.655Z,12.16
2022-10-08T00:35:53.794Z,12.14
2022-10-08T00:39:04.567Z,12.09
2022-10-08T00:42:07.760Z,12.07
2022-10-08T00:45:13.615Z,12.05
2022-10-08T00:48:21.063Z,12.05
2022-10-08T00:51:24.535Z,12.04
2022-10-08T00:54:27.398Z,11.99
2022-10-08T00:57:30.192Z,11.98
2022-10-08T01:00:33.462Z,11.97
2022-10-08T01:03:35.961Z,11.91
2022-10-08T01:06:44.690Z,11.87
2022-10-08T01:10:11.431Z,11.85
2022-10-08T01:13:35.972Z,11.80
2022-10-08T01:16:57.088Z,11.78
2022-10-08T01:20:10.972Z,11.76
2022-10-08T01:23:26.867Z,11.70
2022-10-08T01:26:29.598Z,11.67
2022-10-08T01:29:39.893Z,11.64
2022-10-08T01:33:05.078Z,11.65
2022-10-08T01:36:08.691Z,11.62
2022-10-08T01:39:15.212Z,11.60
2022-10-08T01:42:19.319Z,11.58
2022-10-08T01:45:26.409Z,11.60
2022-10-08T01:48:33.865Z,11.61
2022-10-08T01:51:44.451Z,11.62
2022-10-08T01:54:48.360Z,11.60
2022-10-08T01:57:51.774Z,11.56
2022-10-08T02:00:55.733Z,11.55
2022-10-08T02:04:17.210Z,11.53
2022-10-08T02:07:22.135Z,11.47
2022-10-08T02:10:26.391Z,11.44
2022-10-08T02:13:30.504Z,11.41
2022-10-08T02:16:34.358Z,11.41
2022-10-08T02:19:53.096Z,11.39
2022-10-08T02:23:21.990Z,11.35
2022-10-08T02:26:33.472Z,11.30
2022-10-08T02:29:46.098Z,11.26
2022-10-08T02:32:53.417Z,11.21
2022-10-08T02:35:57.652Z,11.17
2022-10-08T02:39:04.032Z,11.16
2022-10-08T02:42:12.544Z,11.16
2022-10-08T02:45:22.093Z,11.11
2022-10-08T02:48:32.845Z,11.12
2022-10-08T02:51:38.626Z,11.07
2022-10-08T02:54:43.547Z,11.03
2022-10-08T02:57:51.998Z,10.99
2022-10-08T03:01:28.667Z,10.94
2022-10-08T03:05:05.450Z,10.92
2022-10-08T03:08:10.839Z,10.87
2022-10-08T03:11:13.662Z,10.82
2022-10-08T03:14:17.519Z,10.77
2022-10-08T03:17:25.252Z,10.74
2022-10-08T03:20:28.105Z,10.67
2022-10-08T03:23:30.580Z,10.60
2022-10-08T03:26:33.425Z,10.58
2022-10-08T03:29:35.886Z,10.56
2022-10-08T03:32:38.635Z,10.55
2022-10-08T03:35:47.502Z,10.55
2022-10-08T03:38:50.577Z,10.49
2022-10-08T03:41:53.117Z,10.44
2022-10-08T03:44:55.987Z,10.41
2022-10-08T03:47:58.478Z,10.36
2022-10-08T03:51:04.849Z,10.36
2022-10-08T03:54:07.412Z,10.34
2022-10-08T03:57:10.273Z,10.32
2022-10-08T04:00:13.155Z,10.30
2022-10-08T04:03:15.993Z,10.27
2022-10-08T04:06:18.825Z,10.22
2022-10-08T04:09:21.658Z,10.17
2022-10-08T04:12:24.190Z,10.15
2022-10-08T04:15:26.989Z,10.15
2022-10-08T04:18:29.845Z,10.12
2022-10-08T04:21:32.652Z,10.10
2022-10-08T04:24:35.116Z,10.09
2022-10-08T04:27:37.929Z,10.10
2022-10-08T04:30:40.756Z,10.03
2022-10-08T04:33:44.478Z,9.97
2022-10-08T04:36:47.064Z,9.94
2022-10-08T04:39:49.936Z,9.91
2022-10-08T04:42:52.655Z,9.89
2022-10-08T04:45:55.455Z,9.87
2022-10-08T04:48:58.330Z,9.85
2022-10-08T04:52:01.195Z,9.79
2022-10-08T04:55:03.824Z,9.78
2022-10-08T04:58:06.595Z,9.76
2022-10-08T05:01:10.882Z,9.76
2022-10-08T05:04:13.744Z,9.73
2022-10-08T05:07:16.255Z,9.72
2022-10-08T05:10:19.707Z,9.64
2022-10-08T05:13:22.211Z,9.64
2022-10-08T05:16:26.307Z,9.66
2022-10-08T05:19:28.850Z,9.61
2022-10-08T05:22:31.595Z,9.67
2022-10-08T05:25:34.953Z,9.70
2022-10-08T05:28:37.771Z,9.69
2022-10-08T05:31:40.360Z,9.72
2022-10-08T05:34:43.219Z,9.77
2022-10-08T05:37:45.649Z,9.81
2022-10-08T05:40:48.360Z,9.86
2022-10-08T05:43:51.682Z,9.92
2022-10-08T05:46:54.463Z,9.93
2022-10-08T05:49:56.966Z,9.98
2022-10-08T05:52:59.749Z,10.04
2022-10-08T05:56:03.637Z,10.12
2022-10-08T05:59:06.494Z,10.13
2022-10-08T06:02:10.493Z,10.17
2022-10-08T06:05:13.254Z,10.23
2022-10-08T06:08:15.733Z,10.24
2022-10-08T06:11:18.585Z,10.30
2022-10-08T06:14:21.146Z,10.38
2022-10-08T06:17:23.889Z,10.45
2022-10-08T06:20:31.070Z,10.44
2022-10-08T06:23:34.846Z,10.55
2022-10-08T06:26:39.506Z,10.60
2022-10-08T06:29:42.375Z,10.70
2022-10-08T06:32:45.475Z,10.81
2022-10-08T06:35:48.502Z,10.88
2022-10-08T06:38:56.435Z,11.00
2022-10-08T06:41:59.234Z,11.15
2022-10-08T06:45:05.494Z,11.24
2022-10-08T06:48:08.696Z,11.35
2022-10-08T06:51:13.681Z,11.40
2022-10-08T06:54:16.567Z,11.55
2022-10-08T06:57:19.164Z,11.66
2022-10-08T07:00:22.439Z,11.80
2022-10-08T07:03:24.967Z,11.93
2022-10-08T07:06:28.462Z,11.97
2022-10-08T07:09:31.031Z,12.11
2022-10-08T07:12:33.964Z,12.23
2022-10-08T07:15:36.442Z,12.41
2022-10-08T07:18:40.235Z,12.58
2022-10-08T07:21:42.734Z,12.67
2022-10-08T07:24:45.546Z,12.82
2022-10-08T07:27:48.071Z,13.03
2022-10-08T07:30:51.001Z,13.14
2022-10-08T07:33:53.905Z,13.31
2022-10-08T07:36:56.703Z,13.49
2022-10-08T07:39:59.391Z,13.70
2022-10-08T07:43:05.864Z,13.91
2022-10-08T07:46:10.185Z,14.09
2022-10-08T07:49:13.558Z,14.27
2022-10-08T07:52:16.090Z,14.46
2022-10-08T07:55:18.910Z,14.59
2022-10-08T07:58:21.421Z,14.78
2022-10-08T08:01:29.806Z,14.93
2022-10-08T08:04:32.813Z,15.09
2022-10-08T08:07:35.419Z,15.25
2022-10-08T08:10:38.182Z,15.41
2022-10-08T08:13:41.994Z,15.55
2022-10-08T08:16:44.950Z,15.72
2022-10-08T08:19:47.586Z,15.83
2022-10-08T08:22:50.637Z,16.04
2022-10-08T08:25:53.624Z,16.14
2022-10-08T08:29:01.652Z,16.20
2022-10-08T08:32:04.248Z,16.38
2022-10-08T08:35:07.460Z,16.47
2022-10-08T08:38:10.012Z,16.64
2022-10-08T08:41:28.102Z,16.78
2022-10-08T08:44:36.761Z,16.93
2022-10-08T08:47:49.255Z,17.10
2022-10-08T08:50:55.862Z,17.24
2022-10-08T08:53:59.957Z,17.35
2022-10-08T08:57:29.307Z,17.47
2022-10-08T09:00:35.963Z,17.61
2022-10-08T09:03:45.604Z,17.74
2022-10-08T09:06:49.235Z,17.85
2022-10-08T09:09:53.494Z,17.93
2022-10-08T09:12:56.855Z,18.05
2022-10-08T09:15:59.570Z,18.05
2022-10-08T09:19:02.410Z,18.21
2022-10-08T09:22:10.189Z,18.32
2022-10-08T09:25:17.045Z,18.41
2022-10-08T09:28:54.785Z,18.52
2022-10-08T09:31:57.641Z,18.62
2022-10-08T09:35:07.441Z,18.69
2022-10-08T09:38:24.953Z,18.78
2022-10-08T09:41:29.070Z,18.77
2022-10-08T09:44:41.630Z,18.89
2022-10-08T09:47:44.181Z,18.94
2022-10-08T09:50:57.821Z,19.05
2022-10-08T09:54:00.464Z,19.10
2022-10-08T09:57:03.803Z,19.17
2022-10-08T10:00:07.628Z,19.25
2022-10-08T10:03:17.465Z,19.35
2022-10-08T10:06:27.129Z,19.39
2022-10-08T10:09:32.741Z,19.46
2022-10-08T10:12:39.359Z,19.56
2022-10-08T10:16:09.223Z,19.57
2022-10-08T10:19:17.420Z,19.65
2022-10-08T10:22:35.709Z,19.70
2022-10-08T10:25:47.214Z,19.80
2022-10-08T10:28:56.321Z,19.82
2022-10-08T10:32:04.179Z,19.90
2022-10-08T10:35:19.491Z,19.94
2022-10-08T10:38:25.125Z,19.99
2022-10-08T10:41:38.620Z,20.02
2022-10-08T10:44:53.760Z,20.05
2022-10-08T10:47:56.887Z,20.13
2022-10-08T10:51:11.331Z,20.16
2022-10-08T10:54:46.241Z,20.13
2022-10-08T10:58:12.217Z,20.14
2022-10-08T11:01:35.986Z,20.23
2022-10-08T11:04:53.045Z,20.25
2022-10-08T11:08:30.293Z,20.21
2022-10-08T11:11:40.119Z,20.28
2022-10-08T11:15:21.173Z,20.27
2022-10-08T11:18:35.497Z,20.27
2022-10-08T11:21:43.966Z,20.18
2022-10-08T11:25:01.907Z,20.21
2022-10-08T11:28:17.565Z,20.21
2022-10-08T11:31:48.397Z,20.24
2022-10-08T11:35:04.322Z,20.30
2022-10-08T11:38:06.858Z,20.32
2022-10-08T11:41:24.466Z,20.36
2022-10-08T11:44:27.481Z,20.36
2022-10-08T11:47:42.455Z,20.38
2022-10-08T11:50:44.992Z,20.49
2022-10-08T11:54:08.003Z,20.53
2022-10-08T12:01:02.404Z,20.59
2022-10-08T12:04:18.837Z,20.63
2022-10-08T12:07:28.135Z,20.63
2022-10-08T12:10:36.861Z,20.62
2022-10-08T12:13:39.358Z,20.66
2022-10-08T12:17:04.243Z,20.68
2022-10-08T12:20:33.502Z,20.70
2022-10-08T12:23:38.617Z,20.76
2022-10-08T12:27:19.390Z,20.80
2022-10-08T12:30:58.553Z,20.78
2022-10-08T12:34:13.382Z,20.83
2022-10-08T12:37:38.058Z,20.77
2022-10-08T12:40:53.840Z,20.82
2022-10-08T12:44:16.350Z,20.90
2022-10-08T12:47:38.511Z,20.94
2022-10-08T12:50:50.256Z,20.86
2022-10-08T12:53:52.840Z,20.94
2022-10-08T12:56:55.769Z,20.97
2022-10-08T12:59:59.109Z,21.00
2022-10-08T13:03:01.978Z,21.02
2022-10-08T13:06:16.265Z,21.00
2022-10-08T13:09:33.825Z,20.92
2022-10-08T13:12:37.677Z,20.93
2022-10-08T13:15:40.612Z,20.89
2022-10-08T13:18:50.549Z,20.93
2022-10-08T13:21:55.694Z,20.91
2022-10-08T13:24:58.179Z,20.91
2022-10-08T13:28:13.342Z,20.88
2022-10-08T13:31:22.491Z,20.86
2022-10-08T13:34:58.586Z,20.85
2022-10-08T13:38:21.393Z,20.80
2022-10-08T13:41:25.154Z,20.81
2022-10-08T13:44:28.347Z,20.81
2022-10-08T13:47:31.277Z,20.80
2022-10-08T13:50:33.767Z,20.80
2022-10-08T13:53:37.387Z,20.78
2022-10-08T13:56:39.973Z,20.79
2022-10-08T13:59:42.956Z,20.84
2022-10-08T14:02:45.637Z,20.81
2022-10-08T14:05:48.805Z,20.79
2022-10-08T14:08:51.959Z,20.83
2022-10-08T14:11:57.119Z,20.77
2022-10-08T14:15:00.420Z,20.77
2022-10-08T14:18:04.947Z,20.77
2022-10-08T14:21:14.873Z,20.77
2022-10-08T14:24:19.067Z,20.77
2022-10-08T14:27:21.885Z,20.74
2022-10-08T14:30:25.350Z,20.70
2022-10-08T14:33:28.581Z,20.70
2022-10-08T14:36:40.112Z,20.72
2022-10-08T14:39:42.665Z,20.69
2022-10-08T14:42:46.233Z,20.67
2022-10-08T14:45:51.630Z,20.66
2022-10-08T14:48:54.680Z,20.61
2022-10-08T14:51:57.436Z,20.59
2022-10-08T14:55:06.547Z,20.54
2022-10-08T14:58:09.567Z,20.50
2022-10-08T15:01:13.492Z,20.48
2022-10-08T15:04:16.526Z,20.45
2022-10-08T15:07:19.451Z,20.40
2022-10-08T15:10:22.292Z,20.35
2022-10-08T15:13:25.267Z,20.30
2022-10-08T15:16:28.940Z,20.19
2022-10-08T15:19:31.849Z,20.13
2022-10-08T15:22:34.395Z,20.10
2022-10-08T15:25:37.530Z,20.05
2022-10-08T15:28:41.079Z,19.89
2022-10-08T15:31:51.466Z,19.79
2022-10-08T15:34:54.148Z,19.71
2022-10-08T15:38:42.809Z,19.62
2022-10-08T15:41:47.665Z,19.55
2022-10-08T15:44:51.216Z,19.46
2022-10-08T15:47:54.259Z,19.40
2022-10-08T15:50:58.410Z,19.26
2022-10-08T15:54:01.593Z,19.16
2022-10-08T15:57:05.120Z,19.05
2022-10-08T16:00:08.323Z,18.99
2022-10-08T16:03:14.790Z,18.84
2022-10-08T16:06:23.801Z,18.76
2022-10-08T16:09:26.585Z,18.64
2022-10-08T16:12:30.103Z,18.56
2022-10-08T16:15:36.993Z,18.43
2022-10-08T16:18:39.851Z,18.26
2022-10-08T16:21:43.318Z,18.16
2022-10-08T16:24:46.326Z,18.05
2022-10-08T16:27:49.186Z,17.96
2022-10-08T16:30:52.582Z,17.85
2022-10-08T16:33:58.577Z,17.70
2022-10-08T16:37:01.999Z,17.60
2022-10-08T16:40:04.842Z,17.54
2022-10-08T16:43:07.795Z,17.36
2022-10-08T16:46:29.902Z,17.27
2022-10-08T16:49:34.428Z,17.09
2022-10-08T16:52:36.970Z,17.04
2022-10-08T16:55:39.751Z,16.94
2022-10-08T16:58:42.312Z,16.81
2022-10-08T17:01:46.714Z,16.75
2022-10-08T17:04:49.236Z,16.71
2022-10-08T17:07:52.046Z,16.63
2022-10-08T17:10:54.636Z,16.60
2022-10-08T17:13:58.216Z,16.52
2022-10-08T17:17:01.885Z,16.48
2022-10-08T17:20:05.839Z,16.45
2022-10-08T17:23:08.861Z,16.36
2022-10-08T17:26:14.081Z,16.32
2022-10-08T17:29:16.603Z,16.26
2022-10-08T17:32:19.406Z,16.13
2022-10-08T17:35:21.869Z,16.05
2022-10-08T17:38:24.870Z,15.98
2022-10-08T17:41:29.528Z,15.93
2022-10-08T17:44:32.292Z,15.84
2022-10-08T17:47:34.972Z,15.76
2022-10-08T17:50:38.426Z,15.69
2022-10-08T17:53:41.828Z,15.53
2022-10-08T17:56:45.254Z,15.41
2022-10-08T17:59:47.745Z,15.34
2022-10-08T18:02:51.140Z,15.23
2022-10-08T18:05:58.249Z,15.16
2022-10-08T18:09:03.644Z,15.12
2022-10-08T18:12:06.886Z,15.00
2022-10-08T18:15:09.657Z,14.96
2022-10-08T18:18:12.899Z,14.92
2022-10-08T18:21:17.072Z,14.92
2022-10-08T18:24:19.941Z,14.88
2022-10-08T18:27:22.422Z,14.85
2022-10-08T18:30:25.486Z,14.83
2022-10-08T18:33:31.057Z,14.74
2022-10-08T18:36:36.025Z,14.63
2022-10-08T18:39:38.584Z,14.61
2022-10-08T18:42:41.448Z,14.57
2022-10-08T18:45:43.912Z,14.52
2022-10-08T18:48:47.092Z,14.47
2022-10-08T18:51:50.065Z,14.45
2022-10-08T18:54:53.304Z,14.39
2022-10-08T18:57:55.764Z,14.31
2022-10-08T19:00:59.314Z,14.25
2022-10-08T19:04:03.606Z,14.19
2022-10-08T19:07:06.416Z,14.18
2022-10-08T19:10:09.830Z,14.11
2022-10-08T19:13:12.909Z,14.08
2022-10-08T19:16:16.187Z,14.07
2022-10-08T19:19:25.204Z,13.98
2022-10-08T19:22:27.732Z,13.97
2022-10-08T19:25:30.491Z,13.92
2022-10-08T19:28:34.595Z,13.88
2022-10-08T19:31:37.540Z,13.82
2022-10-08T19:34:40.074Z,13.78
2022-10-08T19:37:42.935Z,13.77
2022-10-08T19:40:45.478Z,13.68
2022-10-08T19:43:48.461Z,13.66
2022-10-08T19:46:51.075Z,13.55
2022-10-08T19:49:55.162Z,13.56
2022-10-08T19:52:58.281Z,13.53
2022-10-08T19:56:08.417Z,13.51
2022-10-08T19:59:11.876Z,13.49
2022-10-08T20:02:14.662Z,13.47
2022-10-08T20:05:17.474Z,13.46
2022-10-08T20:08:20.476Z,13.43
2022-10-08T20:11:23.714Z,13.42
2022-10-08T20:14:26.207Z,13.40
2022-10-08T20:17:29.026Z,13.38
2022-10-08T20:20:33.532Z,13.32
2022-10-08T20:23:37.329Z,13.29
2022-10-08T20:26:41.174Z,13.28
2022-10-08T20:29:43.915Z,13.19
2022-10-08T20:32:46.673Z,13.15
2022-10-08T20:35:49.545Z,13.13
2022-10-08T20:38:52.289Z,13.13
2022-10-08T20:41:55.252Z,13.10
2022-10-08T20:44:57.974Z,13.08
2022-10-08T20:48:00.753Z,13.02
2022-10-08T20:51:05.113Z,13.02
2022-10-08T20:54:09.982Z,13.03
2022-10-08T20:57:12.598Z,13.02
2022-10-08T21:00:15.625Z,12.96
2022-10-08T21:03:18.149Z,12.93
2022-10-08T21:06:23.811Z,12.95
2022-10-08T21:09:26.357Z,12.97
2022-10-08T21:12:29.069Z,12.98
2022-10-08T21:15:31.562Z,12.98
2022-10-08T21:18:35.358Z,12.95
2022-10-08T21:21:38.104Z,12.96
2022-10-08T21:24:40.944Z,12.97
2022-10-08T21:27:44.959Z,12.94
2022-10-08T21:30:53.173Z,12.93
2022-10-08T21:33:56.117Z,12.91
2022-10-08T21:36:59.167Z,12.88
2022-10-08T21:40:01.883Z,12.86
2022-10-08T21:43:04.774Z,12.87
2022-10-08T21:46:08.752Z,12.85
2022-10-08T21:49:14.629Z,12.82
2022-10-08T21:52:17.121Z,12.76
2022-10-08T21:55:20.195Z,12.76
2022-10-08T21:58:24.363Z,12.72
2022-10-08T22:01:32.204Z,12.73
2022-10-08T22:04:35.086Z,12.70
2022-10-08T22:07:37.554Z,12.68
2022-10-08T22:10:40.295Z,12.71
2022-10-08T22:13:43.300Z,12.67
2022-10-08T22:16:46.798Z,12.59
2022-10-08T22:19:49.331Z,12.56
2022-10-08T22:22:52.311Z,12.53
2022-10-08T22:26:00.374Z,12.49
2022-10-08T22:29:04.210Z,12.49
2022-10-08T22:32:06.802Z,12.43
2022-10-08T22:35:10.273Z,12.41
2022-10-08T22:38:13.269Z,12.38
2022-10-08T22:41:21.715Z,12.31
2022-10-08T22:44:24.198Z,12.29
2022-10-08T22:47:27.059Z,12.29
2022-10-08T22:50:30.106Z,12.34
2022-10-08T22:53:33.429Z,12.32
2022-10-08T22:56:36.109Z,12.34
2022-10-08T22:59:38.901Z,12.36
2022-10-08T23:02:41.589Z,12.34
2022-10-08T23:05:44.524Z,12.34
2022-10-08T23:08:51.574Z,12.38
2022-10-08T23:23:59.563Z,12.36
2022-10-08T23:27:07.561Z,12.33
2022-10-08T23:30:31.388Z,12.28
2022-10-08T23:33:38.171Z,12.29
2022-10-08T23:36:42.932Z,12.20
2022-10-08T23:39:45.802Z,12.20
2022-10-08T23:42:48.475Z,12.18
2022-10-08T23:45:51.567Z,12.13
2022-10-08T23:48:54.966Z,12.09
2022-10-08T23:51:57.763Z,12.09
2022-10-08T23:55:00.293Z,12.10
2022-10-08T23:58:03.067Z,12.04
